ASL765 UUEE-LYBE
Flight info
| Callsign | ASL765 |
|---|---|
| Flight time | 2h 36m |
| Altitude | 36000 |
| Route | TOKNU3J TOKNU T288 STAPA M869 OPOKA/N0443F360 DCT LAUGA DCT VABER DCT TITUV M985 EVINA/N0446F370 DCT KELEL DCT PARAK DCT TISAK |
| Aircraft | A319/M-SDE3FGHIRWY/LB1 |
Departure
| Time | 2026-04-30 11:19 |
|---|---|
| Airport | Sheremetyevo International Airport (UUEE) |
Arrival
| Time | 2026-04-30 13:55 |
|---|---|
| Airport | Belgrade Nikola Tesla Airport (LYBE) |
| Time | Latitude | Longitude | Altitude | Speed | Heading |
|---|---|---|---|---|---|
| 2026-04-30 10:54 | 55.97983 | 37.41226 | 639 ft | 0 kts | 255° |
| 2026-04-30 11:10 | 55.97985 | 37.41236 | 639 ft | 2 kts | 253° |
| 2026-04-30 11:10 | 55.97989 | 37.41264 | 639 ft | 2 kts | 255° |
| 2026-04-30 11:11 | 55.97994 | 37.41292 | 645 ft | 2 kts | 253° |
| 2026-04-30 11:11 | 55.98002 | 37.41317 | 643 ft | 2 kts | 201° |
| 2026-04-30 11:11 | 55.98016 | 37.41323 | 642 ft | 1 kts | 168° |
| 2026-04-30 11:11 | 55.98019 | 37.41322 | 641 ft | 0 kts | 167° |
| 2026-04-30 11:15 | 55.98008 | 37.41327 | 640 ft | 4 kts | 167° |
| 2026-04-30 11:15 | 55.97954 | 37.41352 | 639 ft | 13 kts | 165° |
| 2026-04-30 11:15 | 55.97855 | 37.41399 | 639 ft | 16 kts | 169° |
| 2026-04-30 11:15 | 55.97743 | 37.41451 | 639 ft | 17 kts | 165° |
| 2026-04-30 11:16 | 55.97659 | 37.41577 | 645 ft | 16 kts | 133° |
| 2026-04-30 11:16 | 55.97614 | 37.41721 | 639 ft | 16 kts | 75° |
| 2026-04-30 11:16 | 55.97650 | 37.41950 | 643 ft | 21 kts | 75° |
| 2026-04-30 11:16 | 55.97689 | 37.42216 | 639 ft | 23 kts | 75° |
| 2026-04-30 11:17 | 55.97732 | 37.42505 | 639 ft | 25 kts | 75° |
| 2026-04-30 11:17 | 55.97751 | 37.42787 | 640 ft | 18 kts | 132° |
| 2026-04-30 11:17 | 55.97675 | 37.42820 | 640 ft | 12 kts | 164° |
| 2026-04-30 11:17 | 55.97599 | 37.42790 | 643 ft | 12 kts | 234° |
| 2026-04-30 11:18 | 55.97585 | 37.42702 | 645 ft | 4 kts | 255° |
| 2026-04-30 11:18 | 55.97439 | 37.41728 | 640 ft | 100 kts | 255° |
| 2026-04-30 11:18 | 55.97211 | 37.40190 | 641 ft | 156 kts | 255° |
| 2026-04-30 11:19 | 55.96925 | 37.38227 | 1160 ft | 163 kts | 258° |
| 2026-04-30 11:19 | 55.96624 | 37.36255 | 1897 ft | 165 kts | 257° |
| 2026-04-30 11:19 | 55.96293 | 37.34176 | 2234 ft | 185 kts | 257° |
| 2026-04-30 11:19 | 55.95920 | 37.31820 | 2508 ft | 211 kts | 257° |
| 2026-04-30 11:20 | 55.95500 | 37.29139 | 2906 ft | 237 kts | 256° |
| 2026-04-30 11:20 | 55.95034 | 37.26204 | 3611 ft | 251 kts | 256° |
| 2026-04-30 11:20 | 55.94549 | 37.23175 | 4564 ft | 256 kts | 256° |
| 2026-04-30 11:20 | 55.94057 | 37.20099 | 5566 ft | 259 kts | 256° |
| 2026-04-30 11:21 | 55.93559 | 37.16982 | 6559 ft | 262 kts | 256° |
| 2026-04-30 11:21 | 55.93059 | 37.13845 | 7471 ft | 265 kts | 256° |
| 2026-04-30 11:21 | 55.92554 | 37.10660 | 8356 ft | 269 kts | 256° |
| 2026-04-30 11:21 | 55.92052 | 37.07471 | 9246 ft | 272 kts | 257° |
| 2026-04-30 11:22 | 55.91815 | 37.04106 | 9863 ft | 275 kts | 275° |
| 2026-04-30 11:22 | 55.92250 | 37.00816 | 10001 ft | 272 kts | 296° |
| 2026-04-30 11:22 | 55.93296 | 36.98041 | 10007 ft | 270 kts | 315° |
| 2026-04-30 11:22 | 55.94774 | 36.95985 | 10072 ft | 273 kts | 325° |
| 2026-04-30 11:23 | 55.96329 | 36.93955 | 10615 ft | 284 kts | 323° |
| 2026-04-30 11:23 | 55.97396 | 36.92491 | 10758 ft | 300 kts | 322° |
| 2026-04-30 11:23 | 56.00850 | 36.87636 | 11748 ft | 323 kts | 322° |
| 2026-04-30 11:24 | 56.02630 | 36.85137 | 12485 ft | 327 kts | 322° |
| 2026-04-30 11:24 | 56.04435 | 36.82615 | 13217 ft | 331 kts | 322° |
| 2026-04-30 11:24 | 56.06266 | 36.80069 | 13948 ft | 334 kts | 323° |
| 2026-04-30 11:25 | 56.09990 | 36.74916 | 15257 ft | 341 kts | 323° |
| 2026-04-30 11:25 | 56.11874 | 36.72303 | 15907 ft | 344 kts | 323° |
| 2026-04-30 11:25 | 56.15693 | 36.67006 | 17210 ft | 350 kts | 323° |
| 2026-04-30 11:26 | 56.19542 | 36.61652 | 18543 ft | 354 kts | 324° |
| 2026-04-30 11:26 | 56.21499 | 36.58918 | 19137 ft | 356 kts | 324° |
| 2026-04-30 11:26 | 56.23469 | 36.56169 | 19710 ft | 359 kts | 324° |
| 2026-04-30 11:27 | 56.25452 | 36.53404 | 20282 ft | 362 kts | 324° |
| 2026-04-30 11:27 | 56.27426 | 36.50633 | 20840 ft | 365 kts | 324° |
| 2026-04-30 11:27 | 56.29460 | 36.47768 | 21400 ft | 368 kts | 325° |
| 2026-04-30 11:27 | 56.31459 | 36.44956 | 21936 ft | 371 kts | 325° |
| 2026-04-30 11:28 | 56.35025 | 36.38099 | 22960 ft | 385 kts | 305° |
| 2026-04-30 11:28 | 56.36189 | 36.33683 | 23444 ft | 395 kts | 293° |
| 2026-04-30 11:28 | 56.36831 | 36.28812 | 23898 ft | 404 kts | 282° |
| 2026-04-30 11:29 | 56.37183 | 36.23750 | 24281 ft | 408 kts | 282° |
| 2026-04-30 11:29 | 56.37536 | 36.18660 | 24676 ft | 410 kts | 282° |
| 2026-04-30 11:29 | 56.38251 | 36.08350 | 25452 ft | 416 kts | 282° |
| 2026-04-30 11:30 | 56.38953 | 35.97981 | 26208 ft | 422 kts | 281° |
| 2026-04-30 11:30 | 56.39306 | 35.92704 | 26584 ft | 424 kts | 281° |
| 2026-04-30 11:30 | 56.39659 | 35.87401 | 26963 ft | 427 kts | 281° |
| 2026-04-30 11:31 | 56.40012 | 35.82060 | 27325 ft | 430 kts | 281° |
| 2026-04-30 11:31 | 56.40364 | 35.76682 | 27694 ft | 432 kts | 281° |
| 2026-04-30 11:31 | 56.40714 | 35.71265 | 28044 ft | 435 kts | 281° |
| 2026-04-30 11:31 | 56.41061 | 35.65816 | 28392 ft | 438 kts | 281° |
| 2026-04-30 11:32 | 56.41413 | 35.60334 | 28706 ft | 440 kts | 282° |
| 2026-04-30 11:32 | 56.41769 | 35.54826 | 29012 ft | 444 kts | 282° |
| 2026-04-30 11:32 | 56.42125 | 35.49340 | 29320 ft | 446 kts | 282° |
| 2026-04-30 11:33 | 56.42841 | 35.38137 | 29946 ft | 452 kts | 282° |
| 2026-04-30 11:33 | 56.43192 | 35.32483 | 30248 ft | 454 kts | 282° |
| 2026-04-30 11:33 | 56.43538 | 35.26788 | 30502 ft | 457 kts | 281° |
| 2026-04-30 11:33 | 56.43884 | 35.21079 | 30744 ft | 459 kts | 281° |
| 2026-04-30 11:34 | 56.44234 | 35.15333 | 30980 ft | 461 kts | 281° |
| 2026-04-30 11:34 | 56.44581 | 35.09569 | 31287 ft | 461 kts | 281° |
| 2026-04-30 11:34 | 56.44923 | 35.03824 | 31617 ft | 460 kts | 281° |
| 2026-04-30 11:34 | 56.45437 | 34.98142 | 31933 ft | 455 kts | 289° |
| 2026-04-30 11:35 | 56.46413 | 34.92743 | 32221 ft | 448 kts | 298° |
| 2026-04-30 11:35 | 56.47708 | 34.87651 | 32531 ft | 446 kts | 301° |
| 2026-04-30 11:35 | 56.49029 | 34.82553 | 32853 ft | 446 kts | 300° |
| 2026-04-30 11:35 | 56.50337 | 34.77466 | 33167 ft | 447 kts | 300° |
| 2026-04-30 11:36 | 56.51643 | 34.72354 | 33478 ft | 447 kts | 300° |
| 2026-04-30 11:36 | 56.52944 | 34.67231 | 33792 ft | 447 kts | 300° |
| 2026-04-30 11:36 | 56.54241 | 34.62118 | 34112 ft | 447 kts | 300° |
| 2026-04-30 11:36 | 56.55543 | 34.56992 | 34403 ft | 447 kts | 299° |
| 2026-04-30 11:37 | 56.56843 | 34.51872 | 34662 ft | 447 kts | 299° |
| 2026-04-30 11:37 | 56.58138 | 34.46751 | 34915 ft | 448 kts | 299° |
| 2026-04-30 11:37 | 56.59415 | 34.41680 | 35149 ft | 448 kts | 299° |
| 2026-04-30 11:37 | 56.60711 | 34.36538 | 35252 ft | 448 kts | 299° |
| 2026-04-30 11:38 | 56.63292 | 34.26243 | 35274 ft | 447 kts | 299° |
| 2026-04-30 11:38 | 56.65736 | 34.15813 | 35277 ft | 452 kts | 291° |
| 2026-04-30 11:39 | 56.66718 | 34.04424 | 35270 ft | 460 kts | 279° |
| 2026-04-30 11:39 | 56.67294 | 33.92853 | 35269 ft | 460 kts | 280° |
| 2026-04-30 11:40 | 56.67886 | 33.81280 | 35273 ft | 460 kts | 280° |
| 2026-04-30 11:40 | 56.68452 | 33.69769 | 35265 ft | 460 kts | 280° |
| 2026-04-30 11:41 | 56.68999 | 33.58182 | 35272 ft | 460 kts | 280° |
| 2026-04-30 11:41 | 56.69532 | 33.46568 | 35271 ft | 460 kts | 279° |
| 2026-04-30 11:42 | 56.70056 | 33.34961 | 35271 ft | 460 kts | 280° |
| 2026-04-30 11:42 | 56.70575 | 33.23336 | 35240 ft | 460 kts | 280° |
| 2026-04-30 11:43 | 56.71085 | 33.11703 | 35269 ft | 461 kts | 280° |
| 2026-04-30 11:43 | 56.71578 | 33.00118 | 35269 ft | 461 kts | 279° |
| 2026-04-30 11:44 | 56.72056 | 32.88475 | 35266 ft | 461 kts | 279° |
| 2026-04-30 11:44 | 56.72522 | 32.76810 | 35266 ft | 461 kts | 279° |
| 2026-04-30 11:45 | 56.72979 | 32.65149 | 35269 ft | 462 kts | 279° |
| 2026-04-30 11:45 | 56.73439 | 32.53475 | 35265 ft | 461 kts | 279° |
| 2026-04-30 11:46 | 56.73887 | 32.41803 | 35269 ft | 462 kts | 279° |
| 2026-04-30 11:46 | 56.74315 | 32.30207 | 35269 ft | 462 kts | 279° |
| 2026-04-30 11:47 | 56.74733 | 32.18511 | 35266 ft | 462 kts | 279° |
| 2026-04-30 11:47 | 56.75142 | 32.06823 | 35267 ft | 462 kts | 279° |
| 2026-04-30 11:48 | 56.75545 | 31.95130 | 35266 ft | 462 kts | 279° |
| 2026-04-30 11:48 | 56.75928 | 31.83474 | 35602 ft | 460 kts | 279° |
| 2026-04-30 11:49 | 56.76119 | 31.77648 | 35843 ft | 460 kts | 279° |
| 2026-04-30 11:49 | 56.76308 | 31.71838 | 36088 ft | 460 kts | 278° |
| 2026-04-30 11:49 | 56.76494 | 31.66008 | 36228 ft | 460 kts | 278° |
| 2026-04-30 11:49 | 56.76671 | 31.60265 | 36265 ft | 460 kts | 278° |
| 2026-04-30 11:50 | 56.77021 | 31.48637 | 36260 ft | 459 kts | 278° |
| 2026-04-30 11:50 | 56.77363 | 31.37006 | 36264 ft | 459 kts | 278° |
| 2026-04-30 11:51 | 56.77695 | 31.25361 | 36235 ft | 459 kts | 278° |
| 2026-04-30 11:51 | 56.78012 | 31.13737 | 36261 ft | 459 kts | 278° |
| 2026-04-30 11:52 | 56.78353 | 31.02097 | 36259 ft | 459 kts | 278° |
| 2026-04-30 11:52 | 56.78722 | 30.90484 | 36258 ft | 459 kts | 278° |
| 2026-04-30 11:53 | 56.79080 | 30.78857 | 36261 ft | 459 kts | 278° |
| 2026-04-30 11:53 | 56.79384 | 30.67297 | 36254 ft | 460 kts | 277° |
| 2026-04-30 11:54 | 56.79405 | 30.55588 | 36224 ft | 462 kts | 275° |
| 2026-04-30 11:54 | 56.79269 | 30.43860 | 36235 ft | 462 kts | 274° |
| 2026-04-30 11:55 | 56.79158 | 30.32127 | 36242 ft | 462 kts | 275° |
| 2026-04-30 11:55 | 56.79100 | 30.20404 | 36250 ft | 462 kts | 275° |
| 2026-04-30 11:56 | 56.79053 | 30.08759 | 36255 ft | 462 kts | 275° |
| 2026-04-30 11:56 | 56.78979 | 29.97036 | 36248 ft | 462 kts | 275° |
| 2026-04-30 11:57 | 56.78888 | 29.85303 | 36250 ft | 462 kts | 275° |
| 2026-04-30 11:57 | 56.78782 | 29.73577 | 36255 ft | 463 kts | 275° |
| 2026-04-30 11:58 | 56.78671 | 29.61843 | 36258 ft | 463 kts | 275° |
| 2026-04-30 11:58 | 56.78555 | 29.50108 | 36258 ft | 463 kts | 275° |
| 2026-04-30 11:59 | 56.78428 | 29.38378 | 36257 ft | 463 kts | 274° |
| 2026-04-30 11:59 | 56.78288 | 29.26698 | 36260 ft | 463 kts | 274° |
| 2026-04-30 12:00 | 56.78126 | 29.14962 | 36239 ft | 463 kts | 274° |
| 2026-04-30 12:00 | 56.77948 | 29.03206 | 36249 ft | 463 kts | 274° |
| 2026-04-30 12:01 | 56.77710 | 28.91453 | 36249 ft | 464 kts | 274° |
| 2026-04-30 12:01 | 56.77443 | 28.79696 | 36258 ft | 464 kts | 274° |
| 2026-04-30 12:02 | 56.77178 | 28.67998 | 36246 ft | 464 kts | 274° |
| 2026-04-30 12:02 | 56.76902 | 28.56224 | 36225 ft | 464 kts | 274° |
| 2026-04-30 12:03 | 56.76480 | 28.38559 | 36275 ft | 466 kts | 274° |
| 2026-04-30 12:04 | 56.76181 | 28.26766 | 36276 ft | 466 kts | 274° |
| 2026-04-30 12:04 | 56.75867 | 28.14966 | 36284 ft | 466 kts | 273° |
| 2026-04-30 12:05 | 56.75539 | 28.03177 | 36284 ft | 466 kts | 273° |
| 2026-04-30 12:05 | 56.74509 | 27.91506 | 36288 ft | 478 kts | 256° |
| 2026-04-30 12:05 | 56.73178 | 27.85918 | 36247 ft | 485 kts | 245° |
| 2026-04-30 12:06 | 56.71312 | 27.80732 | 36294 ft | 494 kts | 237° |
| 2026-04-30 12:06 | 56.67187 | 27.70705 | 36301 ft | 495 kts | 237° |
| 2026-04-30 12:07 | 56.63055 | 27.60687 | 36301 ft | 495 kts | 237° |
| 2026-04-30 12:07 | 56.58908 | 27.50677 | 36306 ft | 496 kts | 237° |
| 2026-04-30 12:08 | 56.54759 | 27.40689 | 36306 ft | 496 kts | 237° |
| 2026-04-30 12:08 | 56.50598 | 27.30717 | 36319 ft | 496 kts | 237° |
| 2026-04-30 12:09 | 56.46427 | 27.20773 | 36320 ft | 496 kts | 237° |
| 2026-04-30 12:09 | 56.42267 | 27.10901 | 36325 ft | 497 kts | 237° |
| 2026-04-30 12:10 | 56.38051 | 27.00911 | 36325 ft | 497 kts | 236° |
| 2026-04-30 12:10 | 56.33880 | 26.91088 | 36326 ft | 497 kts | 236° |
| 2026-04-30 12:11 | 56.29669 | 26.81205 | 36326 ft | 497 kts | 236° |
| 2026-04-30 12:11 | 56.25456 | 26.71343 | 36326 ft | 497 kts | 236° |
| 2026-04-30 12:12 | 56.21226 | 26.61492 | 36305 ft | 499 kts | 236° |
| 2026-04-30 12:12 | 56.16962 | 26.51626 | 36315 ft | 501 kts | 236° |
| 2026-04-30 12:13 | 56.12682 | 26.41763 | 36310 ft | 501 kts | 236° |
| 2026-04-30 12:13 | 56.08394 | 26.31890 | 36319 ft | 502 kts | 236° |
| 2026-04-30 12:14 | 56.04125 | 26.22103 | 36324 ft | 502 kts | 236° |
| 2026-04-30 12:14 | 55.99807 | 26.12266 | 36328 ft | 502 kts | 236° |
| 2026-04-30 12:15 | 55.95362 | 26.02627 | 36331 ft | 506 kts | 228° |
| 2026-04-30 12:15 | 55.90118 | 25.94217 | 36331 ft | 507 kts | 224° |
| 2026-04-30 12:16 | 55.84820 | 25.85911 | 36330 ft | 507 kts | 224° |
| 2026-04-30 12:16 | 55.79552 | 25.77666 | 36331 ft | 507 kts | 224° |
| 2026-04-30 12:17 | 55.71598 | 25.65252 | 36333 ft | 507 kts | 224° |
| 2026-04-30 12:17 | 55.66288 | 25.57018 | 36334 ft | 507 kts | 224° |
| 2026-04-30 12:18 | 55.60976 | 25.48805 | 36332 ft | 507 kts | 223° |
| 2026-04-30 12:18 | 55.55654 | 25.40617 | 36332 ft | 507 kts | 223° |
| 2026-04-30 12:19 | 55.51225 | 25.33832 | 36324 ft | 507 kts | 223° |
| 2026-04-30 12:19 | 55.45898 | 25.25690 | 36327 ft | 507 kts | 223° |
| 2026-04-30 12:20 | 55.40560 | 25.17546 | 36330 ft | 507 kts | 223° |
| 2026-04-30 12:20 | 55.35213 | 25.09416 | 36320 ft | 510 kts | 223° |
| 2026-04-30 12:21 | 55.29864 | 25.01336 | 36324 ft | 511 kts | 223° |
| 2026-04-30 12:21 | 55.24467 | 24.93208 | 36328 ft | 511 kts | 223° |
| 2026-04-30 12:22 | 55.19074 | 24.85103 | 36335 ft | 511 kts | 223° |
| 2026-04-30 12:22 | 55.13672 | 24.77002 | 36339 ft | 511 kts | 223° |
| 2026-04-30 12:23 | 55.08263 | 24.68930 | 36339 ft | 511 kts | 222° |
| 2026-04-30 12:23 | 55.02844 | 24.60903 | 36342 ft | 511 kts | 222° |
| 2026-04-30 12:24 | 54.97415 | 24.52885 | 36354 ft | 511 kts | 222° |
| 2026-04-30 12:24 | 54.92022 | 24.44917 | 36359 ft | 512 kts | 222° |
| 2026-04-30 12:25 | 54.86590 | 24.36930 | 36376 ft | 511 kts | 222° |
| 2026-04-30 12:25 | 54.81148 | 24.28980 | 36377 ft | 511 kts | 222° |
| 2026-04-30 12:26 | 54.75697 | 24.21045 | 36380 ft | 511 kts | 222° |
| 2026-04-30 12:26 | 54.70282 | 24.13179 | 36383 ft | 511 kts | 222° |
| 2026-04-30 12:27 | 54.64829 | 24.05284 | 36387 ft | 511 kts | 221° |
| 2026-04-30 12:27 | 54.59366 | 23.97390 | 36391 ft | 511 kts | 221° |
| 2026-04-30 12:28 | 54.53913 | 23.89553 | 36396 ft | 511 kts | 221° |
| 2026-04-30 12:28 | 54.48476 | 23.81782 | 36396 ft | 511 kts | 221° |
| 2026-04-30 12:29 | 54.43006 | 23.73989 | 36401 ft | 511 kts | 221° |
| 2026-04-30 12:29 | 54.37546 | 23.66215 | 36403 ft | 510 kts | 221° |
| 2026-04-30 12:30 | 54.32081 | 23.58459 | 36404 ft | 509 kts | 221° |
| 2026-04-30 12:30 | 54.26606 | 23.50738 | 36404 ft | 510 kts | 221° |
| 2026-04-30 12:31 | 54.21124 | 23.43046 | 36386 ft | 509 kts | 221° |
| 2026-04-30 12:31 | 54.15681 | 23.35395 | 36372 ft | 510 kts | 221° |
| 2026-04-30 12:32 | 54.10208 | 23.27637 | 36385 ft | 512 kts | 221° |
| 2026-04-30 12:32 | 54.04731 | 23.19876 | 36396 ft | 513 kts | 221° |
| 2026-04-30 12:33 | 53.99228 | 23.12151 | 36400 ft | 513 kts | 221° |
| 2026-04-30 12:33 | 53.93717 | 23.04473 | 36409 ft | 512 kts | 220° |
| 2026-04-30 12:34 | 53.88202 | 22.96812 | 36409 ft | 512 kts | 220° |
| 2026-04-30 12:34 | 53.82726 | 22.89204 | 36410 ft | 512 kts | 220° |
| 2026-04-30 12:35 | 53.77214 | 22.81555 | 36408 ft | 512 kts | 220° |
| 2026-04-30 12:35 | 53.71696 | 22.73940 | 36405 ft | 512 kts | 220° |
| 2026-04-30 12:36 | 53.66174 | 22.66351 | 36404 ft | 512 kts | 220° |
| 2026-04-30 12:36 | 53.60647 | 22.58782 | 36404 ft | 512 kts | 220° |
| 2026-04-30 12:37 | 53.55107 | 22.51236 | 36405 ft | 512 kts | 220° |
| 2026-04-30 12:37 | 53.49573 | 22.43710 | 36410 ft | 512 kts | 220° |
| 2026-04-30 12:38 | 53.44040 | 22.36204 | 36413 ft | 512 kts | 220° |
| 2026-04-30 12:38 | 53.38493 | 22.28713 | 36416 ft | 512 kts | 220° |
| 2026-04-30 12:39 | 53.32980 | 22.21301 | 36417 ft | 511 kts | 220° |
| 2026-04-30 12:39 | 53.27438 | 22.13859 | 36415 ft | 511 kts | 220° |
| 2026-04-30 12:40 | 53.21883 | 22.06430 | 36414 ft | 511 kts | 220° |
| 2026-04-30 12:40 | 53.16017 | 21.99736 | 36418 ft | 511 kts | 210° |
| 2026-04-30 12:41 | 53.09863 | 21.93821 | 36424 ft | 511 kts | 210° |
| 2026-04-30 12:41 | 53.03717 | 21.87901 | 36424 ft | 510 kts | 210° |
| 2026-04-30 12:42 | 52.97608 | 21.82010 | 36418 ft | 510 kts | 210° |
| 2026-04-30 12:42 | 52.91460 | 21.76123 | 36421 ft | 509 kts | 210° |
| 2026-04-30 12:43 | 52.85318 | 21.70276 | 36418 ft | 509 kts | 210° |
| 2026-04-30 12:43 | 52.79180 | 21.64449 | 36418 ft | 509 kts | 210° |
| 2026-04-30 12:44 | 52.73038 | 21.58642 | 36383 ft | 509 kts | 209° |
| 2026-04-30 12:44 | 52.66883 | 21.52838 | 36390 ft | 510 kts | 209° |
| 2026-04-30 12:45 | 52.60759 | 21.47071 | 36396 ft | 510 kts | 209° |
| 2026-04-30 12:45 | 52.54592 | 21.41282 | 36401 ft | 511 kts | 209° |
| 2026-04-30 12:46 | 52.48415 | 21.35503 | 36417 ft | 510 kts | 209° |
| 2026-04-30 12:46 | 52.42245 | 21.29740 | 36427 ft | 510 kts | 209° |
| 2026-04-30 12:47 | 52.36069 | 21.24008 | 36428 ft | 510 kts | 209° |
| 2026-04-30 12:47 | 52.29923 | 21.18334 | 36438 ft | 509 kts | 209° |
| 2026-04-30 12:48 | 52.23759 | 21.12642 | 36445 ft | 509 kts | 209° |
| 2026-04-30 12:48 | 52.17598 | 21.06955 | 36442 ft | 508 kts | 209° |
| 2026-04-30 12:49 | 52.11436 | 21.01294 | 36439 ft | 508 kts | 209° |
| 2026-04-30 12:49 | 52.05277 | 20.95669 | 36435 ft | 508 kts | 209° |
| 2026-04-30 12:50 | 51.99117 | 20.90055 | 36417 ft | 507 kts | 209° |
| 2026-04-30 12:50 | 51.92960 | 20.84469 | 36418 ft | 507 kts | 209° |
| 2026-04-30 12:51 | 51.86845 | 20.78934 | 36417 ft | 507 kts | 209° |
| 2026-04-30 12:51 | 51.80687 | 20.73378 | 36427 ft | 506 kts | 209° |
| 2026-04-30 12:52 | 51.74532 | 20.67840 | 36424 ft | 506 kts | 208° |
| 2026-04-30 12:52 | 51.68388 | 20.62321 | 36420 ft | 505 kts | 208° |
| 2026-04-30 12:53 | 51.62238 | 20.56813 | 36418 ft | 505 kts | 208° |
| 2026-04-30 12:53 | 51.56133 | 20.51368 | 36413 ft | 505 kts | 208° |
| 2026-04-30 12:54 | 51.49983 | 20.45913 | 36410 ft | 505 kts | 208° |
| 2026-04-30 12:54 | 51.43841 | 20.40467 | 36410 ft | 504 kts | 208° |
| 2026-04-30 12:55 | 51.37342 | 20.36434 | 36416 ft | 500 kts | 190° |
| 2026-04-30 12:55 | 51.30471 | 20.35217 | 36417 ft | 496 kts | 179° |
| 2026-04-30 12:56 | 51.23566 | 20.34597 | 36415 ft | 496 kts | 180° |
| 2026-04-30 12:56 | 51.16677 | 20.33948 | 36419 ft | 495 kts | 180° |
| 2026-04-30 12:57 | 51.09835 | 20.33315 | 36444 ft | 495 kts | 180° |
| 2026-04-30 12:57 | 51.02972 | 20.32699 | 36436 ft | 493 kts | 180° |
| 2026-04-30 12:58 | 50.96126 | 20.32071 | 36425 ft | 493 kts | 180° |
| 2026-04-30 12:58 | 50.89288 | 20.31438 | 36424 ft | 492 kts | 180° |
| 2026-04-30 12:59 | 50.82460 | 20.30819 | 36413 ft | 491 kts | 180° |
| 2026-04-30 12:59 | 50.75627 | 20.30198 | 36410 ft | 491 kts | 180° |
| 2026-04-30 13:00 | 50.68802 | 20.29582 | 36411 ft | 491 kts | 181° |
| 2026-04-30 13:00 | 50.61971 | 20.28960 | 36412 ft | 491 kts | 181° |
| 2026-04-30 13:01 | 50.55154 | 20.28339 | 36417 ft | 491 kts | 181° |
| 2026-04-30 13:01 | 50.48378 | 20.27730 | 36407 ft | 490 kts | 181° |
| 2026-04-30 13:02 | 50.41565 | 20.27137 | 36409 ft | 490 kts | 181° |
| 2026-04-30 13:02 | 50.34767 | 20.26542 | 36566 ft | 487 kts | 181° |
| 2026-04-30 13:03 | 50.31379 | 20.26243 | 36816 ft | 486 kts | 181° |
| 2026-04-30 13:03 | 50.28003 | 20.25946 | 37067 ft | 486 kts | 181° |
| 2026-04-30 13:03 | 50.24668 | 20.25652 | 37302 ft | 486 kts | 181° |
| 2026-04-30 13:03 | 50.21279 | 20.25350 | 37384 ft | 486 kts | 181° |
| 2026-04-30 13:04 | 50.14523 | 20.24742 | 37396 ft | 486 kts | 181° |
| 2026-04-30 13:04 | 50.07774 | 20.24147 | 37398 ft | 486 kts | 181° |
| 2026-04-30 13:05 | 50.01028 | 20.23560 | 37391 ft | 486 kts | 181° |
| 2026-04-30 13:06 | 49.90956 | 20.22664 | 37382 ft | 485 kts | 181° |
| 2026-04-30 13:06 | 49.84209 | 20.22073 | 37383 ft | 485 kts | 181° |
| 2026-04-30 13:07 | 49.77471 | 20.21487 | 37383 ft | 485 kts | 182° |
| 2026-04-30 13:07 | 49.70725 | 20.20904 | 37389 ft | 485 kts | 182° |
| 2026-04-30 13:08 | 49.64018 | 20.20323 | 37404 ft | 485 kts | 182° |
| 2026-04-30 13:08 | 49.57287 | 20.19756 | 37395 ft | 484 kts | 182° |
| 2026-04-30 13:09 | 49.50561 | 20.19176 | 37380 ft | 483 kts | 182° |
| 2026-04-30 13:09 | 49.43847 | 20.18592 | 37380 ft | 483 kts | 182° |
| 2026-04-30 13:10 | 49.37123 | 20.18012 | 37381 ft | 483 kts | 182° |
| 2026-04-30 13:10 | 49.30411 | 20.17449 | 37367 ft | 483 kts | 181° |
| 2026-04-30 13:11 | 49.23735 | 20.17158 | 37353 ft | 482 kts | 179° |
| 2026-04-30 13:11 | 49.17021 | 20.17077 | 37338 ft | 482 kts | 179° |
| 2026-04-30 13:12 | 49.10316 | 20.16976 | 37331 ft | 482 kts | 179° |
| 2026-04-30 13:12 | 49.03603 | 20.16801 | 37328 ft | 482 kts | 180° |
| 2026-04-30 13:13 | 48.93546 | 20.16492 | 37350 ft | 481 kts | 180° |
| 2026-04-30 13:14 | 48.83515 | 20.16210 | 37330 ft | 480 kts | 180° |
| 2026-04-30 13:14 | 48.73493 | 20.15961 | 37317 ft | 480 kts | 180° |
| 2026-04-30 13:15 | 48.63470 | 20.15690 | 37320 ft | 480 kts | 180° |
| 2026-04-30 13:16 | 48.56783 | 20.15508 | 37316 ft | 481 kts | 180° |
| 2026-04-30 13:16 | 48.50135 | 20.15330 | 37319 ft | 481 kts | 180° |
| 2026-04-30 13:17 | 48.40095 | 20.15070 | 37319 ft | 481 kts | 180° |
| 2026-04-30 13:18 | 48.31194 | 20.14840 | 37352 ft | 480 kts | 180° |
| 2026-04-30 13:18 | 48.21175 | 20.14569 | 37349 ft | 479 kts | 180° |
| 2026-04-30 13:19 | 48.14508 | 20.14397 | 37341 ft | 479 kts | 180° |
| 2026-04-30 13:19 | 48.07836 | 20.14229 | 37344 ft | 479 kts | 181° |
| 2026-04-30 13:20 | 48.01175 | 20.14049 | 37347 ft | 479 kts | 180° |
| 2026-04-30 13:20 | 47.94509 | 20.13875 | 37344 ft | 478 kts | 181° |
| 2026-04-30 13:21 | 47.87859 | 20.13703 | 37350 ft | 478 kts | 181° |
| 2026-04-30 13:22 | 47.77937 | 20.13448 | 37347 ft | 477 kts | 181° |
| 2026-04-30 13:22 | 47.67982 | 20.13196 | 37357 ft | 476 kts | 181° |
| 2026-04-30 13:23 | 47.58054 | 20.12934 | 37361 ft | 474 kts | 181° |
| 2026-04-30 13:24 | 47.44907 | 20.12610 | 37352 ft | 473 kts | 181° |
| 2026-04-30 13:25 | 47.31741 | 20.12266 | 37361 ft | 473 kts | 181° |
| 2026-04-30 13:26 | 47.15359 | 20.11849 | 37359 ft | 472 kts | 181° |
| 2026-04-30 13:28 | 46.98940 | 20.11443 | 37353 ft | 472 kts | 182° |
| 2026-04-30 13:28 | 46.89100 | 20.11199 | 37347 ft | 471 kts | 182° |
| 2026-04-30 13:29 | 46.75986 | 20.10861 | 37328 ft | 471 kts | 182° |
| 2026-04-30 13:31 | 46.59625 | 20.10467 | 37313 ft | 472 kts | 182° |
| 2026-04-30 13:32 | 46.43199 | 20.10069 | 36931 ft | 472 kts | 182° |
| 2026-04-30 13:32 | 46.36623 | 20.09907 | 36425 ft | 472 kts | 182° |
| 2026-04-30 13:33 | 46.30087 | 20.09746 | 35590 ft | 474 kts | 182° |
| 2026-04-30 13:33 | 46.23392 | 20.09577 | 33708 ft | 489 kts | 181° |
| 2026-04-30 13:34 | 46.19979 | 20.09496 | 32736 ft | 492 kts | 181° |
| 2026-04-30 13:34 | 46.09897 | 20.10572 | 31076 ft | 478 kts | 172° |
| 2026-04-30 13:35 | 46.06612 | 20.11172 | 30522 ft | 474 kts | 172° |
| 2026-04-30 13:35 | 46.00135 | 20.12353 | 29357 ft | 463 kts | 172° |
| 2026-04-30 13:36 | 45.93811 | 20.13492 | 28288 ft | 452 kts | 172° |
| 2026-04-30 13:36 | 45.90707 | 20.14047 | 27750 ft | 447 kts | 172° |
| 2026-04-30 13:36 | 45.84593 | 20.15138 | 26718 ft | 438 kts | 172° |
| 2026-04-30 13:37 | 45.81586 | 20.15680 | 26228 ft | 433 kts | 172° |
| 2026-04-30 13:37 | 45.75699 | 20.16745 | 25279 ft | 425 kts | 172° |
| 2026-04-30 13:38 | 45.69877 | 20.17798 | 24362 ft | 419 kts | 172° |
| 2026-04-30 13:38 | 45.66995 | 20.18317 | 23924 ft | 416 kts | 172° |
| 2026-04-30 13:38 | 45.61286 | 20.19339 | 22987 ft | 409 kts | 172° |
| 2026-04-30 13:39 | 45.55699 | 20.20337 | 22097 ft | 400 kts | 172° |
| 2026-04-30 13:39 | 45.50225 | 20.21306 | 21209 ft | 393 kts | 173° |
| 2026-04-30 13:40 | 45.47527 | 20.21781 | 20751 ft | 389 kts | 173° |
| 2026-04-30 13:40 | 45.44844 | 20.22260 | 20286 ft | 386 kts | 172° |
| 2026-04-30 13:40 | 45.42241 | 20.23111 | 19820 ft | 383 kts | 161° |
| 2026-04-30 13:40 | 45.39842 | 20.24575 | 19353 ft | 379 kts | 150° |
| 2026-04-30 13:41 | 45.37548 | 20.26397 | 18884 ft | 377 kts | 149° |
| 2026-04-30 13:41 | 45.35262 | 20.28204 | 18393 ft | 375 kts | 150° |
| 2026-04-30 13:41 | 45.32987 | 20.29992 | 17902 ft | 371 kts | 150° |
| 2026-04-30 13:41 | 45.30740 | 20.31750 | 17433 ft | 367 kts | 150° |
| 2026-04-30 13:42 | 45.28511 | 20.33495 | 16972 ft | 364 kts | 149° |
| 2026-04-30 13:42 | 45.26303 | 20.35223 | 16516 ft | 361 kts | 149° |
| 2026-04-30 13:42 | 45.21932 | 20.38642 | 15604 ft | 356 kts | 149° |
| 2026-04-30 13:43 | 45.19771 | 20.40336 | 15148 ft | 354 kts | 149° |
| 2026-04-30 13:43 | 45.17619 | 20.42019 | 14707 ft | 351 kts | 148° |
| 2026-04-30 13:43 | 45.15482 | 20.43684 | 14239 ft | 350 kts | 148° |
| 2026-04-30 13:43 | 45.13354 | 20.45340 | 13760 ft | 348 kts | 148° |
| 2026-04-30 13:44 | 45.11247 | 20.46980 | 13306 ft | 344 kts | 148° |
| 2026-04-30 13:44 | 45.09157 | 20.48608 | 12853 ft | 341 kts | 148° |
| 2026-04-30 13:44 | 45.07102 | 20.50207 | 12420 ft | 338 kts | 148° |
| 2026-04-30 13:44 | 45.05052 | 20.51799 | 11986 ft | 335 kts | 149° |
| 2026-04-30 13:45 | 45.01000 | 20.54940 | 11126 ft | 329 kts | 149° |
| 2026-04-30 13:45 | 44.98994 | 20.56497 | 10713 ft | 327 kts | 148° |
| 2026-04-30 13:45 | 44.97028 | 20.58024 | 10540 ft | 316 kts | 148° |
| 2026-04-30 13:46 | 44.95135 | 20.59487 | 10402 ft | 305 kts | 148° |
| 2026-04-30 13:46 | 44.93283 | 20.60914 | 10105 ft | 301 kts | 148° |
| 2026-04-30 13:46 | 44.91452 | 20.62329 | 9717 ft | 300 kts | 149° |
| 2026-04-30 13:46 | 44.89613 | 20.63670 | 9343 ft | 299 kts | 156° |
| 2026-04-30 13:47 | 44.87612 | 20.64473 | 8969 ft | 298 kts | 169° |
| 2026-04-30 13:47 | 44.85563 | 20.64940 | 8633 ft | 296 kts | 170° |
| 2026-04-30 13:47 | 44.83544 | 20.65394 | 8321 ft | 294 kts | 170° |
| 2026-04-30 13:47 | 44.81525 | 20.65849 | 7955 ft | 293 kts | 170° |
| 2026-04-30 13:48 | 44.79549 | 20.66478 | 7530 ft | 289 kts | 158° |
| 2026-04-30 13:48 | 44.77662 | 20.67431 | 6954 ft | 289 kts | 168° |
| 2026-04-30 13:48 | 44.75702 | 20.67244 | 6401 ft | 285 kts | 202° |
| 2026-04-30 13:48 | 44.74072 | 20.65884 | 6145 ft | 269 kts | 224° |
| 2026-04-30 13:49 | 44.72790 | 20.64083 | 5995 ft | 253 kts | 228° |
| 2026-04-30 13:49 | 44.71569 | 20.62407 | 5823 ft | 240 kts | 226° |
| 2026-04-30 13:49 | 44.70412 | 20.60738 | 5469 ft | 233 kts | 238° |
| 2026-04-30 13:49 | 44.69889 | 20.58683 | 5038 ft | 220 kts | 278° |
| 2026-04-30 13:50 | 44.70251 | 20.56640 | 4679 ft | 214 kts | 300° |
| 2026-04-30 13:50 | 44.71863 | 20.53271 | 4346 ft | 201 kts | 307° |
| 2026-04-30 13:50 | 44.72604 | 20.51667 | 4204 ft | 190 kts | 306° |
| 2026-04-30 13:51 | 44.73310 | 20.50111 | 3944 ft | 187 kts | 305° |
| 2026-04-30 13:51 | 44.74002 | 20.48563 | 3606 ft | 186 kts | 305° |
| 2026-04-30 13:51 | 44.74675 | 20.47036 | 3323 ft | 176 kts | 306° |
| 2026-04-30 13:51 | 44.75291 | 20.45645 | 3125 ft | 161 kts | 306° |
| 2026-04-30 13:52 | 44.75879 | 20.44318 | 2756 ft | 156 kts | 306° |
| 2026-04-30 13:52 | 44.76438 | 20.43064 | 2356 ft | 148 kts | 307° |
| 2026-04-30 13:52 | 44.76975 | 20.41867 | 2012 ft | 139 kts | 308° |
| 2026-04-30 13:52 | 44.77474 | 20.40748 | 1762 ft | 132 kts | 308° |
| 2026-04-30 13:53 | 44.77951 | 20.39669 | 1591 ft | 128 kts | 309° |
| 2026-04-30 13:53 | 44.78408 | 20.38641 | 1429 ft | 124 kts | 308° |
| 2026-04-30 13:53 | 44.78855 | 20.37638 | 1258 ft | 123 kts | 308° |
| 2026-04-30 13:53 | 44.79322 | 20.36600 | 1065 ft | 123 kts | 307° |
| 2026-04-30 13:54 | 44.79785 | 20.35561 | 871 ft | 126 kts | 303° |
| 2026-04-30 13:54 | 44.80246 | 20.34521 | 753 ft | 124 kts | 306° |
| 2026-04-30 13:54 | 44.80705 | 20.33492 | 561 ft | 125 kts | 303° |
| 2026-04-30 13:54 | 44.81156 | 20.32471 | 392 ft | 121 kts | 305° |
| 2026-04-30 13:55 | 44.81591 | 20.31488 | 306 ft | 107 kts | 301° |
| 2026-04-30 13:55 | 44.81896 | 20.30804 | 307 ft | 58 kts | 302° |
| 2026-04-30 13:55 | 44.82023 | 20.30516 | 305 ft | 23 kts | 302° |
| 2026-04-30 13:55 | 44.82116 | 20.30300 | 304 ft | 28 kts | 301° |
| 2026-04-30 13:56 | 44.82227 | 20.30045 | 306 ft | 33 kts | 303° |
| 2026-04-30 13:56 | 44.82332 | 20.29793 | 308 ft | 20 kts | 281° |
| 2026-04-30 13:56 | 44.82246 | 20.29657 | 311 ft | 21 kts | 212° |
| 2026-04-30 13:56 | 44.82129 | 20.29553 | 310 ft | 19 kts | 212° |
| 2026-04-30 13:57 | 44.82016 | 20.29452 | 307 ft | 16 kts | 212° |
| 2026-04-30 13:57 | 44.81954 | 20.29362 | 308 ft | 11 kts | 282° |
| 2026-04-30 13:57 | 44.81973 | 20.29315 | 307 ft | 2 kts | 302° |
| 2026-04-30 13:57 | 44.81978 | 20.29305 | 307 ft | 0 kts | 302° |